createdAt,value
2023-02-28T00:01:29.196Z,45.00
2023-02-28T00:03:57.391Z,44.73
2023-02-28T00:06:26.710Z,41.93
2023-02-28T00:08:54.718Z,49.33
2023-02-28T00:11:22.997Z,49.53
2023-02-28T00:13:51.262Z,48.40
2023-02-28T00:16:21.517Z,47.13
2023-02-28T00:18:50.221Z,44.67
2023-02-28T00:21:20.060Z,46.37
2023-02-28T00:23:49.859Z,53.10
2023-02-28T00:26:18.688Z,54.83
2023-02-28T00:28:49.331Z,64.67
2023-02-28T00:31:17.600Z,78.63
2023-02-28T00:33:45.548Z,86.40
2023-02-28T00:36:14.022Z,96.23
2023-02-28T00:38:43.084Z,82.47
2023-02-28T00:41:12.545Z,92.57
2023-02-28T00:43:42.030Z,101.00
2023-02-28T00:46:10.261Z,91.93
2023-02-28T00:48:38.561Z,109.33
2023-02-28T00:51:07.581Z,120.07
2023-02-28T00:53:35.649Z,112.53
2023-02-28T00:56:03.686Z,142.30
2023-02-28T00:58:32.948Z,137.17
2023-02-28T01:01:00.940Z,139.67
2023-02-28T01:03:28.902Z,124.30
2023-02-28T01:05:57.139Z,112.33
2023-02-28T01:08:25.366Z,123.67
2023-02-28T01:10:53.358Z,111.73
2023-02-28T01:13:21.927Z,111.83
2023-02-28T01:15:54.108Z,130.40
2023-02-28T01:18:23.156Z,120.80
2023-02-28T01:20:52.679Z,134.67
2023-02-28T01:23:20.954Z,108.27
2023-02-28T01:25:48.876Z,101.23
2023-02-28T01:28:16.963Z,105.60
2023-02-28T01:30:44.961Z,101.83
2023-02-28T01:33:14.352Z,99.37
2023-02-28T01:35:42.479Z,100.53
2023-02-28T01:38:21.643Z,96.60
2023-02-28T01:40:50.430Z,96.37
2023-02-28T01:43:23.253Z,87.37
2023-02-28T01:45:51.640Z,91.53
2023-02-28T01:48:22.989Z,89.00
2023-02-28T01:50:51.739Z,87.27
2023-02-28T01:53:23.638Z,92.53
2023-02-28T01:55:54.256Z,87.73
2023-02-28T01:58:23.229Z,88.27
2023-02-28T02:00:51.252Z,84.60
2023-02-28T02:03:22.372Z,92.70
2023-02-28T02:05:50.533Z,92.53
2023-02-28T02:08:22.268Z,91.23
2023-02-28T02:10:54.828Z,87.90
2023-02-28T02:13:50.607Z,86.13
2023-02-28T02:16:33.086Z,95.37
2023-02-28T02:19:16.656Z,91.80
2023-02-28T02:22:23.719Z,91.33
2023-02-28T02:25:07.232Z,104.50
2023-02-28T02:27:59.927Z,86.53
2023-02-28T02:30:55.714Z,92.00
2023-02-28T02:33:38.632Z,95.47
2023-02-28T02:36:17.339Z,93.57
2023-02-28T02:38:51.047Z,96.43
2023-02-28T02:41:25.419Z,103.33
2023-02-28T02:43:58.428Z,94.43
2023-02-28T02:46:32.007Z,98.10
2023-02-28T02:49:03.150Z,82.30
2023-02-28T02:51:34.719Z,94.07
2023-02-28T02:54:08.553Z,98.93
2023-02-28T02:56:38.115Z,102.77
2023-02-28T02:59:11.242Z,95.43
2023-02-28T03:01:41.446Z,105.83
2023-02-28T03:04:13.120Z,102.37
2023-02-28T03:06:42.459Z,112.57
2023-02-28T03:09:11.151Z,94.20
2023-02-28T03:11:42.271Z,92.87
2023-02-28T03:14:28.150Z,92.53
2023-02-28T03:17:20.649Z,78.97
2023-02-28T03:20:08.474Z,97.80
2023-02-28T03:22:53.437Z,92.00
2023-02-28T03:25:29.129Z,96.50
2023-02-28T03:28:07.777Z,90.87
2023-02-28T03:30:41.588Z,84.77
2023-02-28T03:33:15.226Z,95.00
2023-02-28T03:35:47.511Z,90.90
2023-02-28T03:38:22.781Z,100.37
2023-02-28T03:40:57.150Z,98.87
2023-02-28T03:43:30.462Z,91.47
2023-02-28T03:46:03.030Z,83.17
2023-02-28T03:48:37.247Z,105.33
2023-02-28T03:51:09.109Z,86.23
2023-02-28T03:53:42.649Z,87.57
2023-02-28T03:56:17.121Z,95.60
2023-02-28T03:58:51.500Z,97.87
2023-02-28T04:01:23.112Z,92.87
2023-02-28T04:03:52.344Z,88.57
2023-02-28T04:06:22.599Z,92.20
2023-02-28T04:08:52.557Z,93.43
2023-02-28T04:11:24.437Z,92.77
2023-02-28T04:13:52.726Z,88.50
2023-02-28T04:16:33.797Z,90.43
2023-02-28T04:19:04.088Z,74.27
2023-02-28T04:21:33.166Z,92.80
2023-02-28T04:24:03.154Z,81.50
2023-02-28T04:26:32.668Z,83.90
2023-02-28T04:29:01.745Z,84.80
2023-02-28T04:31:29.897Z,82.87
2023-02-28T04:33:58.616Z,77.80
2023-02-28T04:36:26.909Z,79.37
2023-02-28T04:38:54.919Z,77.53
2023-02-28T04:41:25.858Z,80.53
2023-02-28T04:43:54.121Z,79.57
2023-02-28T04:46:22.145Z,79.87
2023-02-28T04:48:50.330Z,90.67
2023-02-28T04:51:19.997Z,81.10
2023-02-28T04:53:48.924Z,82.13
2023-02-28T04:56:19.036Z,74.37
2023-02-28T04:58:49.149Z,71.33
2023-02-28T05:01:22.708Z,68.60
2023-02-28T05:03:51.485Z,70.97
2023-02-28T05:06:21.240Z,75.73
2023-02-28T05:08:49.241Z,74.73
2023-02-28T05:11:20.510Z,75.80
2023-02-28T05:13:50.630Z,81.73
2023-02-28T05:16:19.217Z,74.60
2023-02-28T05:18:47.731Z,85.53
2023-02-28T05:21:27.978Z,67.43
2023-02-28T05:23:57.029Z,75.83
2023-02-28T05:26:25.862Z,82.33
2023-02-28T05:28:56.928Z,71.90
2023-02-28T05:31:25.501Z,85.57
2023-02-28T05:33:53.950Z,83.10
2023-02-28T05:36:22.140Z,82.53
2023-02-28T05:38:50.772Z,79.33
2023-02-28T05:41:21.205Z,87.00
2023-02-28T05:43:49.834Z,77.73
2023-02-28T05:46:19.332Z,84.87
2023-02-28T05:48:50.003Z,82.83
2023-02-28T05:51:18.799Z,92.47
2023-02-28T05:53:47.074Z,84.37
2023-02-28T05:56:15.004Z,93.97
2023-02-28T05:58:42.957Z,81.10
2023-02-28T06:01:33.453Z,95.53
2023-02-28T06:04:01.884Z,84.60
2023-02-28T06:06:31.107Z,85.37
2023-02-28T06:08:59.153Z,97.63
2023-02-28T06:11:29.050Z,92.77
2023-02-28T06:13:58.046Z,89.80
2023-02-28T06:16:26.590Z,84.23
2023-02-28T06:18:57.107Z,85.77
2023-02-28T06:21:25.658Z,76.80
2023-02-28T06:23:53.762Z,80.17
2023-02-28T06:26:22.389Z,78.40
2023-02-28T06:28:51.027Z,86.43
2023-02-28T06:31:20.927Z,82.13
2023-02-28T06:33:49.316Z,80.27
2023-02-28T06:36:19.053Z,83.37
2023-02-28T06:38:49.291Z,84.03
2023-02-28T06:41:17.208Z,75.73
2023-02-28T06:43:45.616Z,87.33
2023-02-28T06:46:15.844Z,85.80
2023-02-28T06:48:45.039Z,86.47
2023-02-28T06:51:15.137Z,83.93
2023-02-28T06:53:44.610Z,89.13
2023-02-28T06:56:14.803Z,83.67
2023-02-28T06:58:43.571Z,84.97
2023-02-28T07:01:11.517Z,77.17
2023-02-28T07:03:39.558Z,72.90
2023-02-28T07:06:08.162Z,69.57
2023-02-28T07:08:37.239Z,69.40
2023-02-28T07:11:06.811Z,66.40
2023-02-28T07:13:34.693Z,64.77
2023-02-28T07:16:04.905Z,61.07
2023-02-28T07:18:33.293Z,62.37
2023-02-28T07:21:03.812Z,54.17
2023-02-28T07:23:32.114Z,46.63
2023-02-28T07:26:00.270Z,45.57
2023-02-28T07:28:29.971Z,46.63
2023-02-28T07:30:58.007Z,37.63
2023-02-28T07:33:25.970Z,31.83
2023-02-28T07:35:53.925Z,28.37
2023-02-28T07:38:21.897Z,29.97
2023-02-28T07:40:49.838Z,28.03
2023-02-28T07:43:17.710Z,20.57
2023-02-28T07:45:46.952Z,25.23
2023-02-28T07:48:14.955Z,24.00
2023-02-28T07:50:42.914Z,25.73
2023-02-28T07:53:10.802Z,38.27
2023-02-28T07:55:38.672Z,26.67
2023-02-28T07:58:06.575Z,27.10
2023-02-28T08:00:34.550Z,20.80
2023-02-28T08:03:03.940Z,20.27
2023-02-28T08:05:32.104Z,18.40
2023-02-28T08:08:00.011Z,13.00
2023-02-28T08:10:27.985Z,9.93
2023-02-28T08:12:55.854Z,9.67
2023-02-28T08:15:23.749Z,13.70
2023-02-28T08:17:51.806Z,12.87
2023-02-28T08:20:21.193Z,13.63
2023-02-28T08:22:49.094Z,16.30
2023-02-28T08:25:16.999Z,14.83
2023-02-28T08:27:44.927Z,15.17
2023-02-28T08:30:14.138Z,17.47
2023-02-28T08:32:42.834Z,14.37
2023-02-28T08:35:11.516Z,14.40
2023-02-28T08:37:40.777Z,13.97
2023-02-28T08:40:10.286Z,12.93
2023-02-28T08:42:38.366Z,13.80
2023-02-28T08:45:07.355Z,11.07
2023-02-28T08:47:35.239Z,13.17
2023-02-28T08:50:03.127Z,10.33
2023-02-28T08:52:31.028Z,13.03
2023-02-28T08:55:00.800Z,13.00
2023-02-28T08:57:28.756Z,11.43
2023-02-28T08:59:56.669Z,11.17
2023-02-28T09:02:24.665Z,10.73
2023-02-28T09:04:52.653Z,15.17
2023-02-28T09:07:20.865Z,12.53
2023-02-28T09:09:55.578Z,13.20
2023-02-28T09:12:26.691Z,12.67
2023-02-28T09:14:55.052Z,12.97
2023-02-28T09:17:22.982Z,11.33
2023-02-28T09:19:51.240Z,15.33
2023-02-28T09:22:19.124Z,14.27
2023-02-28T09:24:47.068Z,15.20
2023-02-28T09:27:14.967Z,15.70
2023-02-28T09:29:44.243Z,13.73
2023-02-28T09:32:12.231Z,13.33
2023-02-28T09:34:40.227Z,14.70
2023-02-28T09:37:08.297Z,12.17
2023-02-28T09:39:36.315Z,13.67
2023-02-28T09:42:05.847Z,10.73
2023-02-28T09:44:37.007Z,14.57
2023-02-28T09:47:15.018Z,17.27
2023-02-28T09:49:47.191Z,15.47
2023-02-28T09:52:20.434Z,15.77
2023-02-28T09:54:49.035Z,15.90
2023-02-28T09:57:26.235Z,16.13
2023-02-28T10:00:10.696Z,19.30
2023-02-28T10:02:59.437Z,14.13
2023-02-28T10:05:32.638Z,15.63
2023-02-28T10:08:09.672Z,14.03
2023-02-28T10:10:41.812Z,12.07
2023-02-28T10:13:18.841Z,12.63
2023-02-28T10:15:49.503Z,14.57
2023-02-28T10:18:25.542Z,14.73
2023-02-28T10:20:55.094Z,14.20
2023-02-28T10:23:27.723Z,12.97
2023-02-28T10:26:00.530Z,14.20
2023-02-28T10:28:31.889Z,14.13
2023-02-28T10:31:00.946Z,15.80
2023-02-28T10:33:35.185Z,12.70
2023-02-28T10:36:04.738Z,12.50
2023-02-28T10:38:37.245Z,14.77
2023-02-28T10:41:09.667Z,13.87
2023-02-28T10:43:57.408Z,11.50
2023-02-28T10:46:27.980Z,15.50
2023-02-28T10:49:07.289Z,16.10
2023-02-28T10:51:40.352Z,13.03
2023-02-28T10:54:19.016Z,17.37
2023-02-28T10:56:46.984Z,13.57
2023-02-28T10:59:30.890Z,14.90
2023-02-28T11:01:58.898Z,14.13
2023-02-28T11:04:41.308Z,14.70
2023-02-28T11:07:21.542Z,12.23
2023-02-28T11:09:53.601Z,16.37
2023-02-28T11:12:27.684Z,15.47
2023-02-28T11:14:59.012Z,15.57
2023-02-28T11:17:29.654Z,14.80
2023-02-28T11:20:04.247Z,12.57
2023-02-28T11:22:36.580Z,13.47
2023-02-28T11:25:10.999Z,10.60
2023-02-28T11:27:50.602Z,15.67
2023-02-28T11:30:34.803Z,15.20
2023-02-28T11:33:03.499Z,12.93
2023-02-28T11:35:38.448Z,13.67
2023-02-28T11:38:11.501Z,10.57
2023-02-28T11:40:48.702Z,14.40
2023-02-28T11:43:28.887Z,12.60
2023-02-28T11:46:12.595Z,11.87
2023-02-28T11:48:49.244Z,16.00
2023-02-28T11:51:25.771Z,11.33
2023-02-28T11:54:26.396Z,12.73
2023-02-28T11:56:59.748Z,13.10
2023-02-28T11:59:53.378Z,11.30
2023-02-28T12:02:26.746Z,15.20
2023-02-28T12:05:15.798Z,13.63
2023-02-28T12:07:57.804Z,11.10
2023-02-28T12:10:28.577Z,12.97
2023-02-28T12:13:06.858Z,11.17
2023-02-28T12:16:00.061Z,13.23
2023-02-28T12:18:59.918Z,14.27
2023-02-28T12:21:35.928Z,13.27
2023-02-28T12:24:29.206Z,12.93
2023-02-28T12:26:59.380Z,11.33
2023-02-28T12:29:31.214Z,11.17
2023-02-28T12:32:06.738Z,10.40
2023-02-28T12:34:40.139Z,12.20
2023-02-28T12:37:15.514Z,13.43
2023-02-28T12:39:50.860Z,10.90
2023-02-28T12:42:25.696Z,12.10
2023-02-28T12:44:58.939Z,13.03
2023-02-28T12:47:26.922Z,17.33
2023-02-28T12:49:59.678Z,11.50
2023-02-28T12:52:37.808Z,12.37
2023-02-28T12:55:15.374Z,11.20
2023-02-28T12:57:50.198Z,10.83
2023-02-28T13:00:20.457Z,11.20
2023-02-28T13:03:22.283Z,16.60
2023-02-28T13:06:12.800Z,17.40
2023-02-28T13:09:02.985Z,16.63
2023-02-28T13:11:34.763Z,11.40
2023-02-28T13:14:06.713Z,13.87
2023-02-28T13:16:59.114Z,13.23
2023-02-28T13:19:29.299Z,11.83
2023-02-28T13:22:00.011Z,12.67
2023-02-28T13:24:49.895Z,14.97
2023-02-28T13:27:36.017Z,11.57
2023-02-28T13:30:45.497Z,11.90
2023-02-28T13:33:30.404Z,13.33
2023-02-28T13:36:27.695Z,11.80
2023-02-28T13:39:00.957Z,13.30
2023-02-28T13:41:49.755Z,16.23
2023-02-28T13:44:24.134Z,11.13
2023-02-28T13:47:24.760Z,15.70
2023-02-28T13:49:53.715Z,12.47
2023-02-28T13:52:25.644Z,12.37
2023-02-28T13:55:02.321Z,11.83
2023-02-28T13:57:43.911Z,13.13
2023-02-28T14:00:25.477Z,11.10
2023-02-28T14:03:11.280Z,11.17
2023-02-28T14:05:39.931Z,11.33
2023-02-28T14:08:16.372Z,18.57
2023-02-28T14:10:47.816Z,12.50
2023-02-28T14:13:45.790Z,14.33
2023-02-28T14:16:16.913Z,11.07
2023-02-28T14:18:52.570Z,13.23
2023-02-28T14:21:26.566Z,12.37
2023-02-28T14:24:25.473Z,12.37
2023-02-28T14:27:17.809Z,14.23
2023-02-28T14:30:11.351Z,14.43
2023-02-28T14:32:49.596Z,16.23
2023-02-28T14:35:30.815Z,13.60
2023-02-28T14:37:58.920Z,12.37
2023-02-28T14:40:32.119Z,14.20
2023-02-28T14:43:01.719Z,12.60
2023-02-28T14:45:32.761Z,13.30
2023-02-28T14:48:04.521Z,17.20
2023-02-28T14:50:34.470Z,9.93
2023-02-28T14:53:03.196Z,13.83
2023-02-28T14:55:33.251Z,16.00
2023-02-28T14:58:06.753Z,13.60
2023-02-28T15:00:38.442Z,12.63
2023-02-28T15:03:21.685Z,12.40
2023-02-28T15:05:58.018Z,18.20
2023-02-28T15:08:27.561Z,12.60
2023-02-28T15:10:58.171Z,14.97
2023-02-28T15:13:32.366Z,15.60
2023-02-28T15:16:04.408Z,14.97
2023-02-28T15:18:44.482Z,15.00
2023-02-28T15:21:18.505Z,18.47
2023-02-28T15:23:50.805Z,14.10
2023-02-28T15:26:21.496Z,14.57
2023-02-28T15:28:51.846Z,16.23
2023-02-28T15:31:28.468Z,12.90
2023-02-28T15:34:00.093Z,20.00
2023-02-28T15:36:32.792Z,17.97
2023-02-28T15:39:10.723Z,15.43
2023-02-28T15:41:43.797Z,21.10
2023-02-28T15:44:30.708Z,14.90
2023-02-28T15:47:03.372Z,20.40
2023-02-28T15:49:44.940Z,19.37
2023-02-28T15:52:17.452Z,18.30
2023-02-28T15:54:46.828Z,26.70
2023-02-28T15:57:19.555Z,25.23
2023-02-28T15:59:54.432Z,25.20
2023-02-28T16:02:24.506Z,26.97
2023-02-28T16:05:19.345Z,26.87
2023-02-28T16:07:49.141Z,24.83
2023-02-28T16:10:17.552Z,23.63
2023-02-28T16:12:45.501Z,27.07
2023-02-28T16:15:21.461Z,28.87
2023-02-28T16:17:49.735Z,34.10
2023-02-28T16:20:21.671Z,29.73
2023-02-28T16:22:49.739Z,31.33
2023-02-28T16:25:19.430Z,70.23
2023-02-28T16:27:51.247Z,66.17
2023-02-28T16:30:23.575Z,80.10
2023-02-28T16:32:52.838Z,94.67
2023-02-28T16:35:24.538Z,105.50
2023-02-28T16:37:53.702Z,97.50
2023-02-28T16:40:24.191Z,79.83
2023-02-28T16:42:55.478Z,83.80
2023-02-28T16:45:27.444Z,71.43
2023-02-28T16:47:56.660Z,77.40
2023-02-28T16:50:28.272Z,71.27
2023-02-28T16:52:56.322Z,81.03
2023-02-28T16:55:25.517Z,79.47
2023-02-28T16:57:56.367Z,83.30
2023-02-28T17:00:25.707Z,80.77
2023-02-28T17:02:54.176Z,81.40
2023-02-28T17:05:23.173Z,95.30
2023-02-28T17:07:52.713Z,101.57
2023-02-28T17:10:22.772Z,86.73
2023-02-28T17:12:51.348Z,89.13
2023-02-28T17:15:21.754Z,87.60
2023-02-28T17:17:50.837Z,102.07
2023-02-28T17:20:23.392Z,117.17
2023-02-28T17:22:53.452Z,137.67
2023-02-28T17:25:22.132Z,123.80
2023-02-28T17:27:50.254Z,131.47
2023-02-28T17:30:20.526Z,127.80
2023-02-28T17:32:49.039Z,136.80
2023-02-28T17:35:18.015Z,122.77
2023-02-28T17:37:46.138Z,112.97
2023-02-28T17:40:19.147Z,98.17
2023-02-28T17:42:47.366Z,89.30
2023-02-28T17:45:16.765Z,86.17
2023-02-28T17:47:47.709Z,69.73
2023-02-28T17:50:18.668Z,59.63
2023-02-28T17:52:47.281Z,46.90
2023-02-28T17:55:20.063Z,33.77
2023-02-28T17:57:49.587Z,41.70
2023-02-28T18:00:19.177Z,36.73
2023-02-28T18:02:47.534Z,38.60
2023-02-28T18:05:15.754Z,50.60
2023-02-28T18:07:44.321Z,59.10
2023-02-28T18:10:20.370Z,61.97
2023-02-28T18:12:49.268Z,59.90
2023-02-28T18:15:18.488Z,58.77
2023-02-28T18:17:46.828Z,59.93
2023-02-28T18:20:15.242Z,59.27
2023-02-28T18:22:43.632Z,50.90
2023-02-28T18:25:14.660Z,55.80
2023-02-28T18:27:54.103Z,48.90
2023-02-28T18:30:22.942Z,47.03
2023-02-28T18:32:51.359Z,53.97
2023-02-28T18:35:35.111Z,54.30
2023-02-28T18:38:09.422Z,54.70
2023-02-28T18:40:38.454Z,60.03
2023-02-28T18:43:08.105Z,86.83
2023-02-28T18:45:37.522Z,100.60
2023-02-28T18:48:06.126Z,88.67
2023-02-28T18:50:34.225Z,79.67
2023-02-28T18:53:03.358Z,86.10
2023-02-28T18:55:32.941Z,81.67
2023-02-28T18:58:01.361Z,77.70
2023-02-28T19:00:31.508Z,94.87
2023-02-28T19:02:59.747Z,92.43
2023-02-28T19:05:31.023Z,70.40
2023-02-28T19:07:59.131Z,75.90
2023-02-28T19:10:27.291Z,78.43
2023-02-28T19:12:55.698Z,74.73
2023-02-28T19:15:24.334Z,100.70
2023-02-28T19:17:54.158Z,103.67
2023-02-28T19:20:22.353Z,93.67
2023-02-28T19:22:51.065Z,88.17
2023-02-28T19:25:19.835Z,89.23
2023-02-28T19:27:47.996Z,91.40
2023-02-28T19:30:19.264Z,81.27
2023-02-28T19:32:50.385Z,74.37
2023-02-28T19:35:20.095Z,73.70
2023-02-28T19:37:48.229Z,66.57
2023-02-28T19:40:17.497Z,58.70
2023-02-28T19:42:46.520Z,70.53
2023-02-28T19:45:14.925Z,68.80
2023-02-28T19:47:43.449Z,74.30
2023-02-28T19:50:12.445Z,76.03
2023-02-28T19:52:43.477Z,75.47
2023-02-28T19:55:12.226Z,88.23
2023-02-28T19:57:40.219Z,80.90
2023-02-28T20:00:09.378Z,92.97
2023-02-28T20:02:41.042Z,87.87
2023-02-28T20:05:10.303Z,85.60
2023-02-28T20:07:38.947Z,86.77
2023-02-28T20:10:09.546Z,85.00
2023-02-28T20:12:37.786Z,86.77
2023-02-28T20:15:07.436Z,75.60
2023-02-28T20:17:35.727Z,74.87
2023-02-28T20:20:03.799Z,79.20
2023-02-28T20:22:32.163Z,85.80
2023-02-28T20:25:00.249Z,74.77
2023-02-28T20:27:30.830Z,76.90
2023-02-28T20:29:58.855Z,93.30
2023-02-28T20:32:27.046Z,120.40
2023-02-28T20:34:55.290Z,137.87
2023-02-28T20:37:38.352Z,128.83
2023-02-28T20:40:08.164Z,133.43
2023-02-28T20:42:37.670Z,137.43
2023-02-28T20:45:06.488Z,114.67
2023-02-28T20:47:34.478Z,91.13
2023-02-28T20:50:02.389Z,72.57
2023-02-28T20:52:30.305Z,72.37
2023-02-28T20:54:58.324Z,67.43
2023-02-28T20:57:26.451Z,56.07
2023-02-28T20:59:55.810Z,63.27
2023-02-28T21:02:23.874Z,69.70
2023-02-28T21:04:51.901Z,63.80
2023-02-28T21:07:19.876Z,57.27
2023-02-28T21:09:47.858Z,57.97
2023-02-28T21:12:15.874Z,57.40
2023-02-28T21:14:43.809Z,57.67
2023-02-28T21:17:13.130Z,58.83
2023-02-28T21:19:41.061Z,53.73
2023-02-28T21:22:08.977Z,56.17
2023-02-28T21:24:36.969Z,64.03
2023-02-28T21:27:04.983Z,63.67
2023-02-28T21:29:32.904Z,58.27
2023-02-28T21:32:02.059Z,64.43
2023-02-28T21:34:31.433Z,57.50
2023-02-28T21:36:59.365Z,58.77
2023-02-28T21:39:29.903Z,64.70
2023-02-28T21:42:03.563Z,63.17
2023-02-28T21:44:34.494Z,60.00
2023-02-28T21:47:02.705Z,60.97
2023-02-28T21:49:32.365Z,56.80
2023-02-28T21:52:00.484Z,63.17
2023-02-28T21:54:28.388Z,56.57
2023-02-28T21:56:56.955Z,55.20
2023-02-28T21:59:25.055Z,60.77
2023-02-28T22:01:54.957Z,55.43
2023-02-28T22:04:22.934Z,60.47
2023-02-28T22:06:53.742Z,61.83
2023-02-28T22:09:22.462Z,63.97
2023-02-28T22:11:51.047Z,73.77
2023-02-28T22:14:19.607Z,74.50
2023-02-28T22:16:53.625Z,75.83
2023-02-28T22:19:24.423Z,79.17
2023-02-28T22:21:54.684Z,68.20
2023-02-28T22:24:24.416Z,72.13
2023-02-28T22:26:52.770Z,65.77
2023-02-28T22:29:21.076Z,64.90
2023-02-28T22:31:49.182Z,66.60
2023-02-28T22:34:17.335Z,60.93
2023-02-28T22:36:45.705Z,57.47
2023-02-28T22:39:15.129Z,68.67
2023-02-28T22:41:43.107Z,65.23
2023-02-28T22:44:12.405Z,64.13
2023-02-28T22:46:40.443Z,64.67
2023-02-28T22:49:08.421Z,73.47
2023-02-28T22:51:36.408Z,78.57
2023-02-28T22:54:04.604Z,77.40
2023-02-28T22:56:34.197Z,64.30
2023-02-28T22:59:02.751Z,67.27
2023-02-28T23:01:32.794Z,73.23
2023-02-28T23:04:02.158Z,67.57
2023-02-28T23:06:32.907Z,67.83
2023-02-28T23:09:03.391Z,70.83
2023-02-28T23:11:34.828Z,71.77
2023-02-28T23:14:03.165Z,70.20
2023-02-28T23:16:33.179Z,74.10
2023-02-28T23:19:04.172Z,74.63
2023-02-28T23:21:32.467Z,77.57
2023-02-28T23:24:03.188Z,77.73
2023-02-28T23:26:33.529Z,81.53
2023-02-28T23:29:01.732Z,85.97
2023-02-28T23:31:29.733Z,76.33
2023-02-28T23:33:58.072Z,69.47
2023-02-28T23:36:25.990Z,67.83
2023-02-28T23:38:54.475Z,61.43
2023-02-28T23:41:23.854Z,64.97
2023-02-28T23:43:54.326Z,57.80
2023-02-28T23:46:23.329Z,60.40
2023-02-28T23:48:51.306Z,65.57
2023-02-28T23:51:21.085Z,66.13
2023-02-28T23:53:51.382Z,64.50
2023-02-28T23:56:21.585Z,61.27
2023-02-28T23:58:50.143Z,69.77
